createdAt,value
2019-05-05T00:01:16.253Z,100177.17
2019-05-05T00:03:49.407Z,100181.73
2019-05-05T00:06:17.910Z,100179.94
2019-05-05T00:08:46.337Z,100174.73
2019-05-05T00:11:25.679Z,100179.75
2019-05-05T00:13:55.914Z,100172.56
2019-05-05T00:16:25.973Z,100169.82
2019-05-05T00:18:54.500Z,100175.61
2019-05-05T00:21:24.410Z,100173.86
2019-05-05T00:23:55.269Z,100169.45
2019-05-05T00:26:24.348Z,100166.84
2019-05-05T00:28:55.214Z,100169.09
2019-05-05T00:31:24.235Z,100165.48
2019-05-05T00:33:54.409Z,100168.63
2019-05-05T00:36:24.599Z,100169.47
2019-05-05T00:38:55.198Z,100172.18
2019-05-05T00:41:25.384Z,100170.89
2019-05-05T00:43:55.403Z,100174.67
2019-05-05T00:46:31.647Z,100169.37
2019-05-05T00:49:00.075Z,100177.73
2019-05-05T00:51:28.498Z,100175.63
2019-05-05T00:53:56.954Z,100173.57
2019-05-05T00:56:25.749Z,100183.11
2019-05-05T00:58:55.895Z,100187.08
2019-05-05T01:01:41.918Z,100184.98
2019-05-05T01:04:11.978Z,100182.34
2019-05-05T01:06:40.465Z,100181.04
2019-05-05T01:09:11.053Z,100183.27
2019-05-05T01:11:39.474Z,100184.53
2019-05-05T01:14:07.987Z,100187.19
2019-05-05T01:16:36.781Z,100192.88
2019-05-05T01:19:05.369Z,100198.63
2019-05-05T01:21:34.859Z,100203.02
2019-05-05T01:24:05.095Z,100198.18
2019-05-05T01:26:35.400Z,100208.70
2019-05-05T01:29:05.881Z,100211.42
2019-05-05T01:31:34.714Z,100211.86
2019-05-05T01:34:10.750Z,100222.37
2019-05-05T01:36:39.337Z,100217.49
2019-05-05T01:39:25.219Z,100221.91
2019-05-05T01:41:55.476Z,100234.19
2019-05-05T01:44:24.656Z,100236.84
2019-05-05T01:46:55.026Z,100241.68
2019-05-05T01:49:25.218Z,100243.05
2019-05-05T01:51:55.255Z,100243.00
2019-05-05T01:54:25.026Z,100255.74
2019-05-05T01:56:55.421Z,100262.72
2019-05-05T01:59:25.068Z,100264.39
2019-05-05T02:01:55.008Z,100268.44
2019-05-05T02:04:25.024Z,100263.66
2019-05-05T02:06:55.011Z,100265.30
2019-05-05T02:09:24.981Z,100269.80
2019-05-05T02:11:54.854Z,100276.88
2019-05-05T02:14:24.628Z,100283.78
2019-05-05T02:16:54.605Z,100279.88
2019-05-05T02:19:25.066Z,100280.78
2019-05-05T02:21:54.902Z,100286.47
2019-05-05T02:24:25.152Z,100295.70
2019-05-05T02:26:54.705Z,100297.43
2019-05-05T02:29:28.568Z,100295.66
2019-05-05T02:32:15.933Z,100296.98
2019-05-05T02:34:46.401Z,100306.62
2019-05-05T02:37:16.024Z,100311.03
2019-05-05T02:39:56.634Z,100317.59
2019-05-05T02:42:15.979Z,100317.12
2019-05-05T02:44:45.799Z,100318.54
2019-05-05T02:47:27.476Z,100320.36
2019-05-05T02:49:58.951Z,100323.86
2019-05-05T02:52:27.618Z,100327.75
2019-05-05T02:54:56.309Z,100338.75
2019-05-05T02:57:25.196Z,100336.52
2019-05-05T02:59:55.505Z,100339.18
2019-05-05T03:02:26.859Z,100340.45
2019-05-05T03:04:56.016Z,100343.97
2019-05-05T03:07:27.147Z,100346.17
2019-05-05T03:09:57.201Z,100346.66
2019-05-05T03:12:27.415Z,100349.76
2019-05-05T03:14:58.553Z,100357.62
2019-05-05T03:17:27.263Z,100352.41
2019-05-05T03:19:56.624Z,100353.73
2019-05-05T03:22:26.787Z,100356.33
2019-05-05T03:24:56.182Z,100358.51
2019-05-05T03:27:24.850Z,100364.22
2019-05-05T03:29:53.594Z,100355.46
2019-05-05T03:32:25.470Z,100354.59
2019-05-05T03:34:53.707Z,100359.39
2019-05-05T03:37:24.831Z,100362.45
2019-05-05T03:39:55.876Z,100364.21
2019-05-05T03:42:25.944Z,100364.19
2019-05-05T03:44:59.940Z,100364.64
2019-05-05T03:47:28.710Z,100370.31
2019-05-05T03:49:57.576Z,100368.12
2019-05-05T03:52:26.414Z,100376.46
2019-05-05T03:54:55.482Z,100375.16
2019-05-05T03:57:24.749Z,100378.19
2019-05-05T03:59:54.759Z,100385.19
2019-05-05T04:02:25.038Z,100379.50
2019-05-05T04:04:55.164Z,100375.16
2019-05-05T04:07:24.268Z,100379.97
2019-05-05T04:09:54.238Z,100377.30
2019-05-05T04:12:24.181Z,100378.59
2019-05-05T04:14:54.614Z,100386.03
2019-05-05T04:17:24.554Z,100386.92
2019-05-05T04:19:54.767Z,100390.02
2019-05-05T04:22:23.810Z,100387.77
2019-05-05T04:24:54.149Z,100390.44
2019-05-05T04:27:23.904Z,100396.62
2019-05-05T04:29:54.516Z,100391.79
2019-05-05T04:32:24.422Z,100394.00
2019-05-05T04:34:54.297Z,100395.77
2019-05-05T04:37:23.955Z,100407.60
2019-05-05T04:39:53.725Z,100411.11
2019-05-05T04:42:23.947Z,100416.80
2019-05-05T04:44:53.806Z,100424.27
2019-05-05T04:47:24.105Z,100424.23
2019-05-05T04:49:54.172Z,100423.78
2019-05-05T04:52:24.269Z,100431.94
2019-05-05T04:54:55.639Z,100437.91
2019-05-05T04:57:24.453Z,100439.95
2019-05-05T04:59:54.113Z,100445.92
2019-05-05T05:02:30.875Z,100436.94
2019-05-05T05:05:07.009Z,100442.81
2019-05-05T05:07:35.437Z,100439.48
2019-05-05T05:10:06.207Z,100447.63
2019-05-05T05:12:34.661Z,100448.66
2019-05-05T05:15:04.468Z,100451.84
2019-05-05T05:17:40.165Z,100450.47
2019-05-05T05:20:09.028Z,100448.91
2019-05-05T05:22:37.463Z,100445.44
2019-05-05T05:25:06.764Z,100451.47
2019-05-05T05:27:35.207Z,100455.17
2019-05-05T05:30:04.773Z,100462.41
2019-05-05T05:32:34.039Z,100461.27
2019-05-05T05:35:03.667Z,100465.00
2019-05-05T05:37:34.162Z,100464.88
2019-05-05T05:40:06.718Z,100464.97
2019-05-05T05:42:35.215Z,100467.95
2019-05-05T05:45:23.774Z,100460.19
2019-05-05T05:47:59.962Z,100467.67
2019-05-05T05:50:38.810Z,100467.59
2019-05-05T05:53:07.241Z,100465.58
2019-05-05T05:55:35.675Z,100470.34
2019-05-05T05:58:04.787Z,100469.05
2019-05-05T06:00:34.331Z,100468.13
2019-05-05T06:03:03.929Z,100463.89
2019-05-05T06:05:34.302Z,100470.92
2019-05-05T06:08:04.772Z,100472.27
2019-05-05T06:10:33.866Z,100476.03
2019-05-05T06:13:04.169Z,100475.98
2019-05-05T06:15:33.766Z,100480.55
2019-05-05T06:18:04.476Z,100474.13
2019-05-05T06:20:34.351Z,100477.97
2019-05-05T06:23:04.105Z,100479.54
2019-05-05T06:25:34.254Z,100483.20
2019-05-05T06:28:04.270Z,100484.02
2019-05-05T06:30:33.629Z,100488.22
2019-05-05T06:33:04.731Z,100485.50
2019-05-05T06:35:33.813Z,100490.50
2019-05-05T06:38:04.495Z,100497.81
2019-05-05T06:40:34.265Z,100491.61
2019-05-05T06:43:04.485Z,100488.70
2019-05-05T06:45:34.632Z,100498.53
2019-05-05T06:48:04.308Z,100491.58
2019-05-05T06:50:34.494Z,100490.11
2019-05-05T06:53:04.238Z,100496.86
2019-05-05T06:55:34.099Z,100496.83
2019-05-05T06:58:04.592Z,100495.48
2019-05-05T07:00:34.673Z,100490.83
2019-05-05T07:03:07.351Z,100495.19
2019-05-05T07:05:34.076Z,100498.50
2019-05-05T07:08:04.440Z,100495.59
2019-05-05T07:10:33.909Z,100497.04
2019-05-05T07:13:02.469Z,100499.55
2019-05-05T07:15:30.910Z,100494.39
2019-05-05T07:17:59.352Z,100497.83
2019-05-05T07:20:27.954Z,100500.30
2019-05-05T07:23:02.142Z,100496.85
2019-05-05T07:25:39.109Z,100497.01
2019-05-05T07:27:56.830Z,100498.92
2019-05-05T07:30:25.260Z,100498.42
2019-05-05T07:32:53.818Z,100491.39
2019-05-05T07:35:26.968Z,100489.41
2019-05-05T07:37:55.492Z,100489.36
2019-05-05T07:40:24.148Z,100487.42
2019-05-05T07:42:53.999Z,100484.03
2019-05-05T07:45:25.190Z,100481.22
2019-05-05T07:47:54.334Z,100473.39
2019-05-05T07:50:31.189Z,100478.38
2019-05-05T07:52:54.598Z,100479.17
2019-05-05T07:55:23.791Z,100479.38
2019-05-05T07:57:53.761Z,100477.48
2019-05-05T08:00:24.045Z,100471.79
2019-05-05T08:02:54.436Z,100476.56
2019-05-05T08:05:24.640Z,100478.12
2019-05-05T08:07:53.947Z,100479.71
2019-05-05T08:10:24.116Z,100489.42
2019-05-05T08:12:54.195Z,100490.00
2019-05-05T08:15:24.213Z,100491.62
2019-05-05T08:18:04.605Z,100501.82
2019-05-05T08:20:37.136Z,100502.30
2019-05-05T08:23:08.320Z,100503.16
2019-05-05T08:25:54.829Z,100498.42
2019-05-05T08:28:37.020Z,100501.87
2019-05-05T08:31:16.715Z,100505.02
2019-05-05T08:33:45.143Z,100515.08
2019-05-05T08:36:14.667Z,100518.93
2019-05-05T08:38:44.150Z,100518.24
2019-05-05T08:41:13.896Z,100515.44
2019-05-05T08:43:44.094Z,100512.58
2019-05-05T08:46:14.318Z,100520.00
2019-05-05T08:48:44.728Z,100511.11
2019-05-05T08:51:14.114Z,100518.25
2019-05-05T08:53:47.907Z,100527.30
2019-05-05T08:56:14.579Z,100520.81
2019-05-05T08:58:43.790Z,100527.30
2019-05-05T09:01:14.780Z,100522.03
2019-05-05T09:03:44.309Z,100519.63
2019-05-05T09:06:13.713Z,100523.06
2019-05-05T09:08:44.214Z,100526.63
2019-05-05T09:11:14.023Z,100526.73
2019-05-05T09:13:44.572Z,100518.32
2019-05-05T09:16:14.374Z,100517.86
2019-05-05T09:18:59.794Z,100517.44
2019-05-05T09:21:28.519Z,100508.61
2019-05-05T09:24:02.338Z,100514.30
2019-05-05T09:26:34.397Z,100511.00
2019-05-05T09:29:20.996Z,100512.03
2019-05-05T09:31:49.600Z,100507.98
2019-05-05T09:34:18.086Z,100502.73
2019-05-05T09:36:46.532Z,100504.39
2019-05-05T09:39:14.984Z,100509.95
2019-05-05T09:41:44.627Z,100513.54
2019-05-05T09:44:13.683Z,100509.66
2019-05-05T09:46:44.481Z,100516.85
2019-05-05T09:49:14.072Z,100514.67
2019-05-05T09:51:43.996Z,100512.55
2019-05-05T09:54:16.642Z,100520.17
2019-05-05T09:56:44.415Z,100506.98
2019-05-05T09:59:13.535Z,100512.34
2019-05-05T10:01:44.437Z,100515.81
2019-05-05T10:04:13.927Z,100526.56
2019-05-05T10:06:47.122Z,100523.66
2019-05-05T10:09:13.778Z,100533.06
2019-05-05T10:11:44.853Z,100531.05
2019-05-05T10:14:14.369Z,100537.23
2019-05-05T10:16:43.927Z,100532.95
2019-05-05T10:19:13.887Z,100532.66
2019-05-05T10:21:44.399Z,100538.08
2019-05-05T10:24:33.914Z,100525.81
2019-05-05T10:27:04.721Z,100531.85
2019-05-05T10:29:32.787Z,100519.36
2019-05-05T10:32:01.319Z,100519.34
2019-05-05T10:34:29.748Z,100524.83
2019-05-05T10:36:58.196Z,100535.30
2019-05-05T10:39:33.351Z,100528.47
2019-05-05T10:42:01.618Z,100528.56
2019-05-05T10:44:30.042Z,100535.69
2019-05-05T10:46:58.490Z,100536.67
2019-05-05T10:49:26.985Z,100532.12
2019-05-05T10:51:55.416Z,100528.89
2019-05-05T10:54:24.355Z,100530.98
2019-05-05T10:56:52.858Z,100531.64
2019-05-05T10:59:23.666Z,100514.65
2019-05-05T11:01:53.770Z,100529.38
2019-05-05T11:04:24.210Z,100530.70
2019-05-05T11:06:54.653Z,100538.63
2019-05-05T11:09:24.373Z,100531.59
2019-05-05T11:11:52.952Z,100536.55
2019-05-05T11:14:21.408Z,100536.88
2019-05-05T11:16:50.233Z,100540.84
2019-05-05T11:19:18.766Z,100537.17
2019-05-05T11:21:47.327Z,100543.07
2019-05-05T11:24:15.782Z,100531.64
2019-05-05T11:26:44.631Z,100535.80
2019-05-05T11:29:13.641Z,100539.16
2019-05-05T11:31:42.245Z,100539.28
2019-05-05T11:34:14.041Z,100547.00
2019-05-05T11:37:00.320Z,100531.97
2019-05-05T11:39:28.746Z,100536.05
2019-05-05T11:41:57.179Z,100540.73
2019-05-05T11:44:25.638Z,100548.98
2019-05-05T11:46:54.820Z,100538.41
2019-05-05T11:49:24.454Z,100540.47
2019-05-05T11:51:54.160Z,100540.86
2019-05-05T11:54:24.525Z,100526.66
2019-05-05T11:56:53.900Z,100542.28
2019-05-05T11:59:23.739Z,100538.50
2019-05-05T12:01:54.969Z,100529.64
2019-05-05T12:04:24.010Z,100534.67
2019-05-05T12:06:52.654Z,100531.77
2019-05-05T12:09:24.817Z,100533.75
2019-05-05T12:11:54.538Z,100530.19
2019-05-05T12:14:27.123Z,100528.81
2019-05-05T12:16:55.032Z,100533.05
2019-05-05T12:19:24.342Z,100521.74
2019-05-05T12:21:54.761Z,100527.91
2019-05-05T12:24:25.093Z,100526.77
2019-05-05T12:27:04.290Z,100516.23
2019-05-05T12:29:34.385Z,100519.42
2019-05-05T12:32:02.788Z,100514.56
2019-05-05T12:34:31.244Z,100509.61
2019-05-05T12:36:59.675Z,100511.47
2019-05-05T12:39:28.104Z,100505.39
2019-05-05T12:41:56.562Z,100499.02
2019-05-05T12:44:26.695Z,100499.52
2019-05-05T12:46:59.702Z,100499.84
2019-05-05T12:49:28.245Z,100504.92
2019-05-05T12:51:56.659Z,100507.37
2019-05-05T12:54:25.154Z,100514.00
2019-05-05T12:56:53.943Z,100509.97
2019-05-05T12:59:24.934Z,100515.58
2019-05-05T13:01:54.664Z,100514.28
2019-05-05T13:04:24.615Z,100514.56
2019-05-05T13:06:54.022Z,100508.36
2019-05-05T13:09:24.350Z,100506.38
2019-05-05T13:11:54.171Z,100503.67
2019-05-05T13:14:22.778Z,100504.54
2019-05-05T13:16:55.316Z,100501.76
2019-05-05T13:19:25.987Z,100504.43
2019-05-05T13:22:11.091Z,100496.39
2019-05-05T13:24:56.369Z,100501.97
2019-05-05T13:27:26.440Z,100494.54
2019-05-05T13:29:54.871Z,100490.70
2019-05-05T13:32:24.743Z,100489.23
2019-05-05T13:34:54.557Z,100487.70
2019-05-05T13:37:24.425Z,100486.62
2019-05-05T13:39:53.904Z,100478.59
2019-05-05T13:42:24.385Z,100469.92
2019-05-05T13:44:54.293Z,100470.39
2019-05-05T13:47:23.839Z,100464.50
2019-05-05T13:49:54.293Z,100458.69
2019-05-05T13:52:24.359Z,100459.76
2019-05-05T13:54:54.359Z,100460.59
2019-05-05T13:57:24.613Z,100461.61
2019-05-05T13:59:54.591Z,100465.91
2019-05-05T14:02:24.541Z,100468.67
2019-05-05T14:04:54.157Z,100456.70
2019-05-05T14:07:23.934Z,100463.81
2019-05-05T14:09:54.788Z,100463.50
2019-05-05T14:12:24.051Z,100467.61
2019-05-05T14:14:54.485Z,100464.77
2019-05-05T14:17:22.815Z,100458.38
2019-05-05T14:20:02.489Z,100460.41
2019-05-05T14:22:21.414Z,100461.88
2019-05-05T14:24:53.658Z,100454.38
2019-05-05T14:27:23.668Z,100452.89
2019-05-05T14:29:53.728Z,100454.66
2019-05-05T14:32:24.095Z,100456.16
2019-05-05T14:34:54.672Z,100453.84
2019-05-05T14:37:31.059Z,100460.03
2019-05-05T14:39:59.669Z,100458.66
2019-05-05T14:42:28.088Z,100456.88
2019-05-05T14:44:57.085Z,100452.92
2019-05-05T14:47:25.516Z,100452.55
2019-05-05T14:49:54.266Z,100455.58
2019-05-05T14:52:24.686Z,100469.91
2019-05-05T14:54:54.386Z,100465.72
2019-05-05T14:57:24.657Z,100473.89
2019-05-05T14:59:54.016Z,100478.95
2019-05-05T15:02:24.284Z,100484.94
2019-05-05T15:04:54.039Z,100489.09
2019-05-05T15:07:39.373Z,100490.63
2019-05-05T15:10:24.939Z,100497.72
2019-05-05T15:12:58.027Z,100492.19
2019-05-05T15:15:26.591Z,100483.88
2019-05-05T15:17:55.020Z,100484.84
2019-05-05T15:20:24.442Z,100481.28
2019-05-05T15:22:54.098Z,100478.58
2019-05-05T15:25:23.470Z,100476.92
2019-05-05T15:27:54.224Z,100474.25
2019-05-05T15:30:26.895Z,100475.97
2019-05-05T15:32:54.136Z,100468.94
2019-05-05T15:35:23.129Z,100477.24
2019-05-05T15:37:51.593Z,100474.08
2019-05-05T15:40:20.360Z,100466.93
2019-05-05T15:42:48.821Z,100467.92
2019-05-05T15:45:17.490Z,100472.66
2019-05-05T15:47:45.932Z,100469.34
2019-05-05T15:50:14.953Z,100468.62
2019-05-05T15:52:44.120Z,100470.57
2019-05-05T15:55:14.054Z,100469.47
2019-05-05T15:57:44.307Z,100473.11
2019-05-05T16:00:14.139Z,100468.85
2019-05-05T16:02:44.174Z,100465.34
2019-05-05T16:05:13.842Z,100464.21
2019-05-05T16:07:43.993Z,100469.40
2019-05-05T16:10:13.686Z,100472.91
2019-05-05T16:12:42.210Z,100476.02
2019-05-05T16:15:16.067Z,100471.66
2019-05-05T16:17:46.190Z,100469.52
2019-05-05T16:20:25.628Z,100467.13
2019-05-05T16:23:01.203Z,100471.76
2019-05-05T16:25:29.704Z,100468.09
2019-05-05T16:27:58.133Z,100466.19
2019-05-05T16:30:26.601Z,100472.59
2019-05-05T16:32:55.218Z,100469.53
2019-05-05T16:35:23.822Z,100471.55
2019-05-05T16:37:52.533Z,100471.72
2019-05-05T16:40:23.217Z,100470.59
2019-05-05T16:42:51.184Z,100473.75
2019-05-05T16:45:20.289Z,100467.64
2019-05-05T16:47:48.729Z,100475.95
2019-05-05T16:50:17.517Z,100469.80
2019-05-05T16:52:47.617Z,100465.77
2019-05-05T16:55:17.782Z,100469.48
2019-05-05T16:57:46.207Z,100466.56
2019-05-05T17:00:15.315Z,100463.20
2019-05-05T17:02:44.442Z,100463.52
2019-05-05T17:05:13.744Z,100465.17
2019-05-05T17:07:42.215Z,100468.78
2019-05-05T17:10:11.089Z,100479.19
2019-05-05T17:12:39.581Z,100477.23
2019-05-05T17:15:10.037Z,100482.03
2019-05-05T17:17:44.558Z,100478.53
2019-05-05T17:20:15.805Z,100483.09
2019-05-05T17:22:48.384Z,100483.51
2019-05-05T17:25:17.062Z,100483.31
2019-05-05T17:27:50.840Z,100484.58
2019-05-05T17:30:16.801Z,100490.70
2019-05-05T17:32:45.222Z,100490.66
2019-05-05T17:35:14.409Z,100489.20
2019-05-05T17:37:44.265Z,100497.73
2019-05-05T17:40:29.586Z,100507.64
2019-05-05T17:42:59.677Z,100522.94
2019-05-05T17:45:45.091Z,100530.64
2019-05-05T17:48:18.150Z,100541.34
2019-05-05T17:50:48.212Z,100537.45
2019-05-05T17:53:20.759Z,100546.23
2019-05-05T17:55:49.991Z,100543.45
2019-05-05T17:58:18.430Z,100548.42
2019-05-05T18:00:48.504Z,100542.22
2019-05-05T18:03:16.927Z,100546.34
2019-05-05T18:05:54.483Z,100551.65
2019-05-05T18:08:44.514Z,100566.95
2019-05-05T18:11:17.631Z,100561.30
2019-05-05T18:13:54.376Z,100568.66
2019-05-05T18:16:26.925Z,100570.56
2019-05-05T18:18:54.918Z,100569.23
2019-05-05T18:21:23.702Z,100567.88
2019-05-05T18:23:52.257Z,100570.45
2019-05-05T18:26:20.759Z,100576.07
2019-05-05T18:28:49.227Z,100573.55
2019-05-05T18:31:17.724Z,100572.19
2019-05-05T18:33:46.225Z,100565.99
2019-05-05T18:36:14.974Z,100561.17
2019-05-05T18:38:44.472Z,100564.44
2019-05-05T18:41:17.227Z,100567.19
2019-05-05T18:43:49.742Z,100573.97
2019-05-05T18:46:18.158Z,100571.26
2019-05-05T18:48:46.585Z,100576.34
2019-05-05T18:51:15.049Z,100577.67
2019-05-05T18:53:43.699Z,100577.70
2019-05-05T18:56:14.297Z,100577.28
2019-05-05T18:58:44.581Z,100586.64
2019-05-05T19:01:17.011Z,100583.22
2019-05-05T19:03:54.490Z,100586.53
2019-05-05T19:06:24.738Z,100588.22
2019-05-05T19:09:02.570Z,100596.63
2019-05-05T19:11:31.007Z,100588.81
2019-05-05T19:13:59.438Z,100582.91
2019-05-05T19:16:28.143Z,100589.63
2019-05-05T19:18:56.562Z,100591.41
2019-05-05T19:21:29.307Z,100589.47
2019-05-05T19:23:57.903Z,100584.00
2019-05-05T19:26:26.327Z,100596.97
2019-05-05T19:28:54.935Z,100595.56
2019-05-05T19:31:23.600Z,100600.46
2019-05-05T19:33:55.700Z,100596.89
2019-05-05T19:36:22.171Z,100595.64
2019-05-05T19:38:50.646Z,100602.19
2019-05-05T19:41:19.065Z,100604.61
2019-05-05T19:43:54.731Z,100613.61
2019-05-05T19:46:25.618Z,100612.92
2019-05-05T19:49:11.814Z,100614.53
2019-05-05T19:51:40.280Z,100616.31
2019-05-05T19:54:09.438Z,100623.20
2019-05-05T19:56:37.862Z,100624.32
2019-05-05T19:59:06.378Z,100621.02
2019-05-05T20:01:37.690Z,100622.15
2019-05-05T20:04:05.695Z,100623.33
2019-05-05T20:06:34.627Z,100623.53
2019-05-05T20:09:04.776Z,100621.72
2019-05-05T20:11:34.043Z,100621.33
2019-05-05T20:14:07.542Z,100618.67
2019-05-05T20:16:37.054Z,100621.23
2019-05-05T20:19:05.555Z,100620.79
2019-05-05T20:21:34.646Z,100617.70
2019-05-05T20:24:03.723Z,100623.63
2019-05-05T20:26:34.597Z,100617.65
2019-05-05T20:29:11.571Z,100622.09
2019-05-05T20:31:34.466Z,100619.42
2019-05-05T20:34:20.773Z,100619.56
2019-05-05T20:37:07.008Z,100614.64
2019-05-05T20:39:35.731Z,100615.42
2019-05-05T20:42:04.224Z,100610.03
2019-05-05T20:44:34.196Z,100615.94
2019-05-05T20:47:04.502Z,100612.81
2019-05-05T20:49:34.629Z,100615.66
2019-05-05T20:52:03.837Z,100614.69
2019-05-05T20:54:32.467Z,100612.27
2019-05-05T20:57:00.958Z,100610.91
2019-05-05T20:59:31.034Z,100609.67
2019-05-05T21:01:59.774Z,100610.16
2019-05-05T21:04:28.156Z,100611.36
2019-05-05T21:06:56.751Z,100619.70
2019-05-05T21:09:25.198Z,100611.84
2019-05-05T21:11:54.821Z,100613.09
2019-05-05T21:14:31.930Z,100621.75
2019-05-05T21:16:54.738Z,100610.46
2019-05-05T21:19:24.759Z,100616.70
2019-05-05T21:21:55.122Z,100612.29
2019-05-05T21:24:24.095Z,100615.28
2019-05-05T21:27:04.235Z,100612.57
2019-05-05T21:29:41.640Z,100608.84
2019-05-05T21:32:04.514Z,100602.26
2019-05-05T21:34:34.233Z,100606.72
2019-05-05T21:37:04.407Z,100603.56
2019-05-05T21:39:34.954Z,100604.59
2019-05-05T21:42:04.681Z,100606.40
2019-05-05T21:44:34.349Z,100603.62
2019-05-05T21:47:03.048Z,100603.59
2019-05-05T21:49:33.663Z,100600.66
2019-05-05T21:52:08.122Z,100606.40
2019-05-05T21:54:38.064Z,100602.89
2019-05-05T21:57:14.215Z,100604.80
2019-05-05T21:59:54.869Z,100609.90
2019-05-05T22:02:15.161Z,100606.30
2019-05-05T22:04:43.251Z,100598.34
2019-05-05T22:07:11.672Z,100595.84
2019-05-05T22:09:40.185Z,100600.89
2019-05-05T22:12:09.091Z,100603.67
2019-05-05T22:14:37.521Z,100600.39
2019-05-05T22:17:06.043Z,100603.34
2019-05-05T22:19:36.147Z,100604.27
2019-05-05T22:22:11.896Z,100610.67
2019-05-05T22:24:40.321Z,100607.00
2019-05-05T22:27:08.843Z,100599.69
2019-05-05T22:29:37.370Z,100600.39
2019-05-05T22:32:06.328Z,100599.25
2019-05-05T22:34:35.043Z,100601.91
2019-05-05T22:37:07.542Z,100601.80
2019-05-05T22:39:33.899Z,100601.05
2019-05-05T22:42:04.582Z,100599.87
2019-05-05T22:44:33.840Z,100602.17
2019-05-05T22:47:04.640Z,100602.12
2019-05-05T22:49:32.796Z,100605.24
2019-05-05T22:52:01.318Z,100601.42
2019-05-05T22:54:29.750Z,100603.20
2019-05-05T22:56:58.206Z,100605.53
2019-05-05T22:59:26.719Z,100608.15
2019-05-05T23:01:55.308Z,100610.63
2019-05-05T23:04:31.599Z,100611.59
2019-05-05T23:07:10.181Z,100617.13
2019-05-05T23:09:38.644Z,100613.13
2019-05-05T23:12:07.078Z,100618.97
2019-05-05T23:14:35.510Z,100618.30
2019-05-05T23:17:21.039Z,100622.11
2019-05-05T23:19:51.129Z,100620.89
2019-05-05T23:22:24.161Z,100623.10
2019-05-05T23:24:54.337Z,100618.29
2019-05-05T23:27:40.302Z,100626.25
2019-05-05T23:30:09.658Z,100626.72
2019-05-05T23:32:38.092Z,100620.44
2019-05-05T23:35:06.859Z,100623.98
2019-05-05T23:37:35.324Z,100626.73
2019-05-05T23:40:05.177Z,100626.16
2019-05-05T23:42:33.788Z,100625.30
2019-05-05T23:45:04.275Z,100628.89
2019-05-05T23:47:34.365Z,100628.31
2019-05-05T23:50:04.534Z,100631.83
2019-05-05T23:52:34.963Z,100622.59
2019-05-05T23:55:04.685Z,100629.29
2019-05-05T23:57:33.103Z,100631.41
